Time,TemperatureF,DewpointF,PressureIn,WindDirection,WindDirectionDegrees,WindSpeedMPH,WindSpeedGustMPH,Humidity,HourlyPrecipIn,Conditions,Clouds,dailyrainin,SoftwareType,DateUTC
2013-02-27 00:00:00,48.9,46.7,29.47,SSW,202,6.9,6.9,92,0.00,CLR,CLR,0.00,WeatherDisplay:10.37,2013-02-27 05:00:00,
2013-02-27 00:06:00,48.6,46.1,29.47,SSW,202,5.9,5.9,91,0.00,CLR,CLR,0.00,WeatherDisplay:10.37,2013-02-27 05:06:00,
2013-02-27 00:11:00,48.4,45.6,29.47,SW,225,9.2,9.2,90,0.00,CLR,CLR,0.00,WeatherDisplay:10.37,2013-02-27 05:11:00,
2013-02-27 00:16:00,48.0,44.6,29.47,South,180,9.2,9.2,88,0.00,CLR,CLR,0.00,WeatherDisplay:10.37,2013-02-27 05:16:00,
2013-02-27 00:21:00,47.7,44.0,29.47,SSW,202,8.1,8.1,87,0.00,CLR,CLR,0.00,WeatherDisplay:10.37,2013-02-27 05:21:00,
2013-02-27 00:27:00,47.3,43.0,29.47,SSE,158,10.5,10.5,85,0.00,CLR,CLR,0.00,WeatherDisplay:10.37,2013-02-27 05:27:00,
2013-02-27 00:32:00,46.9,42.4,29.47,SW,225,6.9,6.9,84,0.00,CLR,CLR,0.00,WeatherDisplay:10.37,2013-02-27 05:32:00,
2013-02-27 00:37:00,46.6,41.7,29.47,NW,315,8.1,8.1,83,0.00,CLR,CLR,0.00,WeatherDisplay:10.37,2013-02-27 05:37:00,
2013-02-27 00:42:00,46.2,41.0,29.47,South,180,8.1,8.1,82,0.00,CLR,CLR,0.00,WeatherDisplay:10.37,2013-02-27 05:42:00,
2013-02-27 00:48:00,46.2,40.7,29.47,SE,135,8.1,8.1,81,0.00,CLR,CLR,0.00,WeatherDisplay:10.37,2013-02-27 05:48:00,
2013-02-27 00:53:00,46.0,40.5,29.47,South,180,8.1,8.1,81,0.00,CLR,CLR,0.00,WeatherDisplay:10.37,2013-02-27 05:53:00,
2013-02-27 00:58:00,46.0,40.5,29.47,WSW,248,9.2,9.2,81,0.00,CLR,CLR,0.00,WeatherDisplay:10.37,2013-02-27 05:58:00,
2013-02-27 01:03:00,46.0,40.5,29.47,SW,225,10.4,10.4,81,0.00,CLR,CLR,0.00,WeatherDisplay:10.37,2013-02-27 06:03:00,
2013-02-27 01:09:00,45.9,40.4,29.47,WSW,248,8.3,8.3,81,0.00,CLR,CLR,0.00,WeatherDisplay:10.37,2013-02-27 06:09:00,
2013-02-27 01:14:00,45.7,40.2,29.47,South,180,10.4,10.4,81,0.00,CLR,CLR,0.00,WeatherDisplay:10.37,2013-02-27 06:14:00,
2013-02-27 01:19:00,45.3,38.9,29.47,South,180,10.4,10.4,78,0.00,CLR,CLR,0.00,WeatherDisplay:10.37,2013-02-27 06:19:00,
2013-02-27 01:24:00,45.1,38.7,29.47,South,180,9.2,9.2,78,0.00,CLR,CLR,0.00,WeatherDisplay:10.37,2013-02-27 06:24:00,
2013-02-27 01:30:00,44.8,38.0,29.47,SSW,202,10.4,10.4,77,0.00,CLR,CLR,0.00,WeatherDisplay:10.37,2013-02-27 06:30:00,
2013-02-27 01:35:00,44.6,37.8,29.47,NW,315,10.4,10.4,77,0.00,CLR,CLR,0.00,WeatherDisplay:10.37,2013-02-27 06:35:00,
2013-02-27 01:40:00,44.4,38.0,29.47,SW,225,10.4,10.4,78,0.00,CLR,CLR,0.00,WeatherDisplay:10.37,2013-02-27 06:40:00,
2013-02-27 01:45:00,44.2,38.1,29.47,SW,225,9.2,9.2,79,0.00,CLR,CLR,0.00,WeatherDisplay:10.37,2013-02-27 06:45:00,
2013-02-27 01:51:00,44.1,38.0,29.47,SW,225,13.8,13.8,79,0.00,CLR,CLR,0.00,WeatherDisplay:10.37,2013-02-27 06:51:00,
2013-02-27 01:56:00,44.1,38.0,29.47,South,180,10.4,10.4,79,0.00,CLR,CLR,0.00,WeatherDisplay:10.37,2013-02-27 06:56:00,
2013-02-27 02:01:00,43.9,37.8,29.47,SW,225,10.4,10.4,79,0.00,CLR,CLR,0.00,WeatherDisplay:10.37,2013-02-27 07:01:00,
2013-02-27 02:07:00,43.7,37.9,29.47,South,180,10.0,10.0,80,0.00,CLR,CLR,0.00,WeatherDisplay:10.37,2013-02-27 07:07:00,
2013-02-27 02:12:00,43.7,37.9,29.47,South,180,10.4,10.4,80,0.00,CLR,CLR,0.00,WeatherDisplay:10.37,2013-02-27 07:12:00,
2013-02-27 02:17:00,43.9,38.4,29.50,SW,225,8.1,8.1,81,0.00,CLR,CLR,0.00,WeatherDisplay:10.37,2013-02-27 07:17:00,
2013-02-27 02:22:00,43.9,38.7,29.50,WSW,248,8.1,8.1,82,0.00,CLR,CLR,0.00,WeatherDisplay:10.37,2013-02-27 07:22:00,
2013-02-27 02:28:00,43.7,38.6,29.50,SW,225,12.7,12.7,82,0.00,CLR,CLR,0.00,WeatherDisplay:10.37,2013-02-27 07:28:00,
2013-02-27 02:33:00,43.5,38.4,29.50,NW,315,11.8,11.8,82,0.00,CLR,CLR,0.00,WeatherDisplay:10.37,2013-02-27 07:33:00,
2013-02-27 02:38:00,43.3,37.9,29.50,SSE,158,10.5,10.5,81,0.00,CLR,CLR,0.00,WeatherDisplay:10.37,2013-02-27 07:38:00,
2013-02-27 02:43:00,43.5,38.1,29.50,SSW,202,8.1,8.1,81,0.00,CLR,CLR,0.00,WeatherDisplay:10.37,2013-02-27 07:43:00,
2013-02-27 02:49:00,43.5,38.4,29.50,SW,225,11.5,11.5,82,0.00,CLR,CLR,0.00,WeatherDisplay:10.37,2013-02-27 07:49:00,
2013-02-27 02:54:00,43.7,38.6,29.50,SW,225,8.3,8.3,82,0.00,CLR,CLR,0.00,WeatherDisplay:10.37,2013-02-27 07:54:00,
2013-02-27 02:59:00,43.5,38.7,29.50,NNW,338,10.5,10.5,83,0.00,CLR,CLR,0.00,WeatherDisplay:10.37,2013-02-27 07:59:00,
2013-02-27 03:04:00,43.0,37.5,29.50,West,270,15.0,15.0,81,0.00,CLR,CLR,0.00,WeatherDisplay:10.37,2013-02-27 08:04:00,
2013-02-27 03:09:00,42.3,35.9,29.50,South,180,11.5,11.5,78,0.00,CLR,CLR,0.00,WeatherDisplay:10.37,2013-02-27 08:09:00,
2013-02-27 03:15:00,42.4,36.1,29.50,SW,225,8.1,8.1,78,0.00,CLR,CLR,0.00,WeatherDisplay:10.37,2013-02-27 08:15:00,
2013-02-27 03:20:00,42.3,35.9,29.50,SW,225,12.7,12.7,78,0.00,CLR,CLR,0.00,WeatherDisplay:10.37,2013-02-27 08:20:00,
2013-02-27 03:25:00,42.1,35.7,29.50,SW,225,13.8,13.8,78,0.00,CLR,CLR,0.00,WeatherDisplay:10.37,2013-02-27 08:25:00,
2013-02-27 03:30:00,42.1,35.4,29.50,SW,225,9.2,9.2,77,0.00,CLR,CLR,0.00,WeatherDisplay:10.37,2013-02-27 08:30:00,
2013-02-27 03:36:00,42.1,35.7,29.50,SW,225,8.1,8.1,78,0.00,CLR,CLR,0.00,WeatherDisplay:10.37,2013-02-27 08:36:00,
2013-02-27 03:41:00,41.7,35.4,29.50,South,180,11.5,11.5,78,0.00,CLR,CLR,0.00,WeatherDisplay:10.37,2013-02-27 08:41:00,
2013-02-27 03:46:00,41.9,35.5,29.50,WSW,248,8.7,8.7,78,0.00,CLR,CLR,0.00,WeatherDisplay:10.37,2013-02-27 08:46:00,
2013-02-27 03:52:00,42.3,36.2,29.50,South,180,13.8,13.8,79,0.00,CLR,CLR,0.00,WeatherDisplay:10.37,2013-02-27 08:52:00,
2013-02-27 03:57:00,42.4,36.7,29.50,West,270,8.1,8.1,80,0.00,CLR,CLR,0.00,WeatherDisplay:10.37,2013-02-27 08:57:00,
2013-02-27 04:02:00,42.6,37.2,29.50,West,270,10.4,10.4,81,0.00,CLR,CLR,0.00,WeatherDisplay:10.37,2013-02-27 09:02:00,
2013-02-27 04:07:00,42.8,37.7,29.50,SW,225,9.2,9.2,82,0.00,CLR,CLR,0.00,WeatherDisplay:10.37,2013-02-27 09:07:00,
2013-02-27 04:13:00,43.0,38.2,29.50,NW,315,12.7,12.7,83,0.00,CLR,CLR,0.00,WeatherDisplay:10.37,2013-02-27 09:13:00,
2013-02-27 04:18:00,43.2,38.7,29.50,WSW,248,12.7,12.7,84,0.00,CLR,CLR,0.00,WeatherDisplay:10.37,2013-02-27 09:18:00,
2013-02-27 04:23:00,43.3,38.8,29.50,SW,225,11.5,11.5,84,0.00,CLR,CLR,0.00,WeatherDisplay:10.37,2013-02-27 09:23:00,
2013-02-27 04:29:00,43.3,39.1,29.50,SW,225,12.7,12.7,85,0.00,CLR,CLR,0.00,WeatherDisplay:10.37,2013-02-27 09:29:00,
2013-02-27 04:34:00,43.2,39.0,29.50,SW,225,9.2,9.2,85,0.00,CLR,CLR,0.00,WeatherDisplay:10.37,2013-02-27 09:34:00,
2013-02-27 04:39:00,43.2,39.0,29.50,SW,225,8.1,8.1,85,0.00,CLR,CLR,0.00,WeatherDisplay:10.37,2013-02-27 09:39:00,
2013-02-27 04:44:00,43.2,39.0,29.50,NW,315,10.4,10.4,85,0.00,CLR,CLR,0.00,WeatherDisplay:10.37,2013-02-27 09:44:00,
2013-02-27 04:49:00,43.0,38.8,29.50,SW,225,8.1,8.1,85,0.00,CLR,CLR,0.00,WeatherDisplay:10.37,2013-02-27 09:49:00,
2013-02-27 04:55:00,43.2,39.0,29.50,NW,315,8.1,8.1,85,0.00,CLR,CLR,0.00,WeatherDisplay:10.37,2013-02-27 09:55:00,
2013-02-27 05:00:00,43.0,38.8,29.50,South,180,8.1,8.1,85,0.00,CLR,CLR,0.00,WeatherDisplay:10.37,2013-02-27 10:00:00,
2013-02-27 05:05:00,43.0,38.8,29.50,South,180,7.6,7.6,85,0.00,CLR,CLR,0.00,WeatherDisplay:10.37,2013-02-27 10:05:00,
2013-02-27 05:10:00,43.2,39.0,29.50,SSW,202,9.2,9.2,85,0.00,CLR,CLR,0.00,WeatherDisplay:10.37,2013-02-27 10:10:00,
2013-02-27 05:16:00,43.2,39.0,29.50,SSW,202,11.5,11.5,85,0.00,CLR,CLR,0.00,WeatherDisplay:10.37,2013-02-27 10:16:00,
2013-02-27 05:21:00,43.0,38.8,29.53,SW,225,13.8,13.8,85,0.00,CLR,CLR,0.00,WeatherDisplay:10.37,2013-02-27 10:21:00,
2013-02-27 05:26:00,42.8,38.3,29.53,SSW,202,8.3,8.3,84,0.00,CLR,CLR,0.00,WeatherDisplay:10.37,2013-02-27 10:26:00,
2013-02-27 05:31:00,42.4,37.9,29.53,SSW,202,10.4,10.4,84,0.00,CLR,CLR,0.00,WeatherDisplay:10.37,2013-02-27 10:31:00,
2013-02-27 05:37:00,42.3,37.5,29.53,SW,225,5.8,5.8,83,0.00,CLR,CLR,0.00,WeatherDisplay:10.37,2013-02-27 10:37:00,
2013-02-27 05:42:00,42.3,37.5,29.53,South,180,8.1,8.1,83,0.00,CLR,CLR,0.00,WeatherDisplay:10.37,2013-02-27 10:42:00,
2013-02-27 05:47:00,42.1,37.3,29.53,SW,225,8.7,8.7,83,0.00,CLR,CLR,0.00,WeatherDisplay:10.37,2013-02-27 10:47:00,
2013-02-27 05:52:00,41.9,36.8,29.53,South,180,12.7,12.7,82,0.00,CLR,CLR,0.00,WeatherDisplay:10.37,2013-02-27 10:52:00,
2013-02-27 05:58:00,41.7,36.0,29.53,WNW,292,12.7,12.7,80,0.00,CLR,CLR,0.00,WeatherDisplay:10.37,2013-02-27 10:58:00,
2013-02-27 06:03:00,41.4,35.3,29.53,West,270,8.1,8.1,79,0.00,CLR,CLR,0.00,WeatherDisplay:10.37,2013-02-27 11:03:00,
2013-02-27 06:08:00,41.0,34.7,29.53,South,180,11.5,11.5,78,0.00,CLR,CLR,0.00,WeatherDisplay:10.37,2013-02-27 11:08:00,
2013-02-27 06:13:00,41.0,34.7,29.53,SSW,202,10.4,10.4,78,0.00,CLR,CLR,0.00,WeatherDisplay:10.37,2013-02-27 11:13:00,
2013-02-27 06:19:00,40.8,34.5,29.53,South,180,9.7,9.7,78,0.00,CLR,CLR,0.00,WeatherDisplay:10.37,2013-02-27 11:19:00,
2013-02-27 06:24:00,40.8,34.5,29.53,SSW,202,6.2,6.2,78,0.00,CLR,CLR,0.00,WeatherDisplay:10.37,2013-02-27 11:24:00,
2013-02-27 06:29:00,41.0,34.7,29.53,WSW,248,5.9,5.9,78,0.00,CLR,CLR,0.00,WeatherDisplay:10.37,2013-02-27 11:29:00,
2013-02-27 06:35:00,41.0,35.0,29.53,South,180,11.5,11.5,79,0.00,CLR,CLR,0.00,WeatherDisplay:10.37,2013-02-27 11:35:00,
2013-02-27 06:40:00,41.0,35.0,29.53,South,180,6.9,6.9,79,0.00,CLR,CLR,0.00,WeatherDisplay:10.37,2013-02-27 11:40:00,
2013-02-27 06:45:00,41.0,35.3,29.53,SSW,202,8.1,8.1,80,0.00,CLR,CLR,0.00,WeatherDisplay:10.37,2013-02-27 11:45:00,
2013-02-27 06:50:00,41.0,35.3,29.56,SSE,158,5.8,6.2,80,0.00,CLR,CLR,0.00,WeatherDisplay:10.37,2013-02-27 11:50:00,
2013-02-27 06:56:00,41.2,35.8,29.56,SSW,202,5.9,5.9,81,0.00,CLR,CLR,0.00,WeatherDisplay:10.37,2013-02-27 11:56:00,
2013-02-27 07:01:00,41.2,35.8,29.56,SSW,202,6.2,6.2,81,0.00,CLR,CLR,0.00,WeatherDisplay:10.37,2013-02-27 12:01:00,
2013-02-27 07:06:00,41.2,36.1,29.56,South,180,9.2,9.2,82,0.00,CLR,CLR,0.00,WeatherDisplay:10.37,2013-02-27 12:06:00,
2013-02-27 07:11:00,41.2,36.1,29.56,SW,225,9.2,9.2,82,0.00,CLR,CLR,0.00,WeatherDisplay:10.37,2013-02-27 12:11:00,
2013-02-27 07:17:00,41.2,36.1,29.56,South,180,8.1,8.1,82,0.00,CLR,CLR,0.00,WeatherDisplay:10.37,2013-02-27 12:17:00,
2013-02-27 07:22:00,41.2,36.1,29.56,SSW,202,9.2,9.2,82,0.00,CLR,CLR,0.00,WeatherDisplay:10.37,2013-02-27 12:22:00,
2013-02-27 07:27:00,41.0,35.6,29.56,SSW,202,4.6,4.6,81,0.00,CLR,CLR,0.00,WeatherDisplay:10.37,2013-02-27 12:27:00,
2013-02-27 07:32:00,41.0,35.6,29.56,South,180,8.3,8.3,81,0.00,CLR,CLR,0.00,WeatherDisplay:10.37,2013-02-27 12:32:00,
2013-02-27 07:38:00,41.0,35.6,29.56,South,180,8.1,8.1,81,0.00,CLR,CLR,0.00,WeatherDisplay:10.37,2013-02-27 12:38:00,
2013-02-27 07:43:00,40.8,35.4,29.56,South,180,9.2,9.2,81,0.00,CLR,CLR,0.00,WeatherDisplay:10.37,2013-02-27 12:43:00,
2013-02-27 07:48:00,40.8,35.1,29.59,SSW,202,11.5,11.5,80,0.00,CLR,CLR,0.00,WeatherDisplay:10.37,2013-02-27 12:48:00,
2013-02-27 07:53:00,40.6,34.6,29.59,SW,225,10.4,10.4,79,0.00,CLR,CLR,0.00,WeatherDisplay:10.37,2013-02-27 12:53:00,
2013-02-27 07:59:00,40.5,34.1,29.59,South,180,10.5,10.5,78,0.00,CLR,CLR,0.00,WeatherDisplay:10.37,2013-02-27 12:59:00,
2013-02-27 08:04:00,40.5,34.1,29.59,SW,225,8.7,8.7,78,0.00,CLR,CLR,0.00,WeatherDisplay:10.37,2013-02-27 13:04:00,
2013-02-27 08:09:00,40.6,34.3,29.59,South,180,8.1,8.1,78,0.00,CLR,CLR,0.00,WeatherDisplay:10.37,2013-02-27 13:09:00,
2013-02-27 08:14:00,40.6,34.6,29.59,SSE,158,11.8,11.8,79,0.00,CLR,CLR,0.00,WeatherDisplay:10.37,2013-02-27 13:14:00,
2013-02-27 08:20:00,40.8,35.1,29.59,SW,225,13.8,13.8,80,0.00,CLR,CLR,0.00,WeatherDisplay:10.37,2013-02-27 13:20:00,
2013-02-27 08:25:00,41.0,35.3,29.59,South,180,8.1,8.1,80,0.00,CLR,CLR,0.00,WeatherDisplay:10.37,2013-02-27 13:25:00,
2013-02-27 08:30:00,41.2,35.8,29.59,WNW,292,9.2,9.2,81,0.00,CLR,CLR,0.00,WeatherDisplay:10.37,2013-02-27 13:30:00,
2013-02-27 08:35:00,41.2,35.8,29.59,WSW,248,7.1,7.1,81,0.00,CLR,CLR,0.00,WeatherDisplay:10.37,2013-02-27 13:35:00,
2013-02-27 08:40:00,41.2,35.8,29.59,South,180,8.1,8.1,81,0.00,CLR,CLR,0.00,WeatherDisplay:10.37,2013-02-27 13:40:00,
2013-02-27 08:45:00,41.2,35.5,29.59,SW,225,9.7,9.7,80,0.00,CLR,CLR,0.00,WeatherDisplay:10.37,2013-02-27 13:45:00,
2013-02-27 08:51:00,41.2,35.5,29.59,South,180,9.2,9.2,80,0.00,CLR,CLR,0.00,WeatherDisplay:10.37,2013-02-27 13:51:00,
2013-02-27 08:56:00,41.2,35.2,29.59,SW,225,9.2,9.2,79,0.00,CLR,CLR,0.00,WeatherDisplay:10.37,2013-02-27 13:56:00,
2013-02-27 09:02:00,41.2,34.8,29.59,NNW,338,8.3,8.3,78,0.00,CLR,CLR,0.00,WeatherDisplay:10.37,2013-02-27 14:02:00,
2013-02-27 09:07:00,41.0,34.7,29.59,SSW,202,9.2,9.2,78,0.00,CLR,CLR,0.00,WeatherDisplay:10.37,2013-02-27 14:07:00,
2013-02-27 09:12:00,41.0,34.3,29.59,SW,225,8.1,8.1,77,0.00,CLR,CLR,0.00,WeatherDisplay:10.37,2013-02-27 14:12:00,
2013-02-27 09:17:00,40.8,34.2,29.62,SSW,202,12.7,12.7,77,0.00,CLR,CLR,0.00,WeatherDisplay:10.37,2013-02-27 14:17:00,
2013-02-27 09:23:00,40.6,33.7,29.62,SW,225,10.5,10.5,76,0.00,CLR,CLR,0.00,WeatherDisplay:10.37,2013-02-27 14:23:00,
2013-02-27 09:28:00,40.8,33.8,29.62,SW,225,8.1,8.1,76,0.00,CLR,CLR,0.00,WeatherDisplay:10.37,2013-02-27 14:28:00,
2013-02-27 09:33:00,40.6,33.3,29.59,SW,225,5.9,6.2,75,0.00,CLR,CLR,0.00,WeatherDisplay:10.37,2013-02-27 14:33:00,
2013-02-27 09:38:00,40.6,33.3,29.59,SW,225,8.1,8.1,75,0.00,CLR,CLR,0.00,WeatherDisplay:10.37,2013-02-27 14:38:00,
2013-02-27 09:44:00,40.5,32.8,29.59,West,270,6.2,6.2,74,0.00,CLR,CLR,0.00,WeatherDisplay:10.37,2013-02-27 14:44:00,
2013-02-27 09:49:00,40.5,32.5,29.62,West,270,8.1,8.1,73,0.00,CLR,CLR,0.00,WeatherDisplay:10.37,2013-02-27 14:49:00,
2013-02-27 09:53:00,40.5,32.5,29.62,South,180,9.2,9.2,73,0.00,CLR,CLR,0.00,WeatherDisplay:10.37,2013-02-27 14:53:00,
2013-02-27 09:54:00,40.5,32.5,29.62,South,180,9.2,9.2,73,0.00,CLR,CLR,0.00,WeatherDisplay:10.37,2013-02-27 14:54:00,
2013-02-27 09:59:00,40.5,32.5,29.62,South,180,9.2,9.2,73,0.00,CLR,CLR,0.00,WeatherDisplay:10.37,2013-02-27 14:59:00,
2013-02-27 10:43:00,40.5,32.5,29.62,South,180,9.2,9.2,73,0.00,CLR,CLR,0.00,WeatherDisplay:10.37,2013-02-27 15:43:00,
2013-02-27 10:48:00,40.6,34.6,29.65,SSE,158,11.5,11.5,79,0.00,CLR,CLR,0.00,WeatherDisplay:10.37,2013-02-27 15:48:00,
2013-02-27 10:54:00,40.1,35.4,29.65,WNW,292,10.4,10.4,83,0.00,CLR,CLR,0.00,WeatherDisplay:10.37,2013-02-27 15:54:00,
2013-02-27 10:59:00,39.9,35.2,29.68,SSW,202,7.6,7.6,83,0.00,CLR,CLR,0.00,WeatherDisplay:10.37,2013-02-27 15:59:00,
2013-02-27 11:04:00,39.6,35.7,29.68,SSW,202,12.7,12.7,86,0.00,CLR,CLR,0.00,WeatherDisplay:10.37,2013-02-27 16:04:00,
2013-02-27 11:09:00,39.6,35.7,29.68,SSW,202,8.1,8.1,86,0.00,CLR,CLR,0.00,WeatherDisplay:10.37,2013-02-27 16:09:00,
2013-02-27 11:15:00,39.4,35.8,29.65,South,180,13.8,13.8,87,0.00,CLR,CLR,0.00,WeatherDisplay:10.37,2013-02-27 16:15:00,
2013-02-27 11:20:00,39.2,35.7,29.65,SSW,202,8.1,8.1,87,0.00,CLR,CLR,0.00,WeatherDisplay:10.37,2013-02-27 16:20:00,
2013-02-27 11:25:00,39.2,35.4,29.65,SSE,158,10.4,10.4,86,0.00,CLR,CLR,0.00,WeatherDisplay:10.37,2013-02-27 16:25:00,
2013-02-27 11:30:00,39.2,35.1,29.65,WNW,292,12.7,12.7,85,0.00,CLR,CLR,0.00,WeatherDisplay:10.37,2013-02-27 16:30:00,
2013-02-27 11:36:00,38.8,35.3,29.65,NNW,338,13.8,13.8,87,0.00,CLR,CLR,0.00,WeatherDisplay:10.37,2013-02-27 16:36:00,
2013-02-27 11:41:00,38.7,35.4,29.68,WSW,248,6.9,6.9,88,0.00,CLR,CLR,0.00,WeatherDisplay:10.37,2013-02-27 16:41:00,
2013-02-27 11:47:00,38.3,35.3,29.68,WSW,248,11.5,11.5,89,0.00,CLR,CLR,0.00,WeatherDisplay:10.37,2013-02-27 16:47:00,
2013-02-27 11:52:00,38.3,35.6,29.68,SSW,202,5.9,6.0,90,0.00,CLR,CLR,0.00,WeatherDisplay:10.37,2013-02-27 16:52:00,
2013-02-27 11:57:00,38.1,35.7,29.68,NNW,338,6.9,6.9,91,0.00,CLR,CLR,0.00,WeatherDisplay:10.37,2013-02-27 16:57:00,
2013-02-27 12:02:00,38.1,35.4,29.68,ESE,112,11.5,11.5,90,0.00,CLR,CLR,0.00,WeatherDisplay:10.37,2013-02-27 17:02:00,
2013-02-27 12:07:00,38.1,35.7,29.68,SSW,202,10.4,10.4,91,0.00,CLR,CLR,0.00,WeatherDisplay:10.37,2013-02-27 17:07:00,
2013-02-27 12:13:00,38.3,35.9,29.68,SSW,202,6.9,6.9,91,0.00,CLR,CLR,0.00,WeatherDisplay:10.37,2013-02-27 17:13:00,
2013-02-27 12:18:00,38.3,35.9,29.68,SSE,158,9.2,9.2,91,0.00,CLR,CLR,0.00,WeatherDisplay:10.37,2013-02-27 17:18:00,
2013-02-27 12:23:00,38.3,36.2,29.68,SSE,158,8.1,8.1,92,0.00,CLR,CLR,0.00,WeatherDisplay:10.37,2013-02-27 17:23:00,
2013-02-27 12:28:00,38.1,36.0,29.68,SSW,202,10.5,10.5,92,0.00,CLR,CLR,0.00,WeatherDisplay:10.37,2013-02-27 17:28:00,
2013-02-27 12:34:00,38.1,36.0,29.68,WSW,248,6.9,7.4,92,0.00,CLR,CLR,0.00,WeatherDisplay:10.37,2013-02-27 17:34:00,
2013-02-27 12:39:00,38.5,36.6,29.68,SSW,202,13.2,13.2,93,0.00,CLR,CLR,0.00,WeatherDisplay:10.37,2013-02-27 17:39:00,
2013-02-27 12:44:00,38.7,36.5,29.65,SSW,202,6.9,6.9,92,0.00,CLR,CLR,0.00,WeatherDisplay:10.37,2013-02-27 17:44:00,
2013-02-27 12:49:00,38.5,36.4,29.65,NNW,338,6.0,6.0,92,0.00,CLR,CLR,0.00,WeatherDisplay:10.37,2013-02-27 17:49:00,
2013-02-27 12:55:00,38.5,36.1,29.65,SSW,202,10.4,10.4,91,0.00,CLR,CLR,0.00,WeatherDisplay:10.37,2013-02-27 17:55:00,
2013-02-27 13:00:00,38.5,36.6,29.68,SSW,202,6.9,6.9,93,0.00,CLR,CLR,0.00,WeatherDisplay:10.37,2013-02-27 18:00:00,
2013-02-27 13:05:00,38.1,35.7,29.68,WSW,248,13.2,13.2,91,0.00,CLR,CLR,0.00,WeatherDisplay:10.37,2013-02-27 18:05:00,
2013-02-27 13:10:00,37.9,35.0,29.65,WSW,248,11.5,11.5,89,0.00,CLR,CLR,0.00,WeatherDisplay:10.37,2013-02-27 18:10:00,
2013-02-27 13:16:00,37.9,35.0,29.65,WSW,248,9.2,9.2,89,0.00,CLR,CLR,0.00,WeatherDisplay:10.37,2013-02-27 18:16:00,
2013-02-27 13:21:00,37.9,34.7,29.65,WSW,248,17.3,17.3,88,0.00,CLR,CLR,0.00,WeatherDisplay:10.37,2013-02-27 18:21:00,
2013-02-27 13:26:00,38.3,35.1,29.65,WSW,248,12.7,12.7,88,0.00,CLR,CLR,0.00,WeatherDisplay:10.37,2013-02-27 18:26:00,
2013-02-27 13:32:00,39.0,35.8,29.65,SSE,158,8.1,8.1,88,0.00,CLR,CLR,0.00,WeatherDisplay:10.37,2013-02-27 18:32:00,
2013-02-27 13:37:00,38.7,34.8,29.65,WSW,248,11.5,11.5,86,0.00,CLR,CLR,0.00,WeatherDisplay:10.37,2013-02-27 18:37:00,
2013-02-27 13:42:00,38.5,35.2,29.65,WSW,248,9.2,9.2,88,0.00,CLR,CLR,0.00,WeatherDisplay:10.37,2013-02-27 18:42:00,
2013-02-27 13:47:00,38.7,35.7,29.65,WSW,248,12.8,12.8,89,0.00,CLR,CLR,0.00,WeatherDisplay:10.37,2013-02-27 18:47:00,
2013-02-27 13:53:00,39.0,35.8,29.65,WNW,292,12.7,12.7,88,0.00,CLR,CLR,0.00,WeatherDisplay:10.37,2013-02-27 18:53:00,
2013-02-27 13:58:00,38.5,34.7,29.65,WSW,248,12.7,12.7,86,0.00,CLR,CLR,0.00,WeatherDisplay:10.37,2013-02-27 18:58:00,
2013-02-27 14:04:00,38.1,34.9,29.65,WSW,248,10.7,10.7,88,0.00,CLR,CLR,0.00,WeatherDisplay:10.37,2013-02-27 19:04:00,
2013-02-27 14:09:00,37.9,34.7,29.65,SW,225,17.3,17.3,88,0.00,CLR,CLR,0.00,WeatherDisplay:10.37,2013-02-27 19:09:00,
2013-02-27 14:14:00,37.6,34.9,29.65,WSW,248,10.4,10.4,90,0.00,CLR,CLR,0.00,WeatherDisplay:10.37,2013-02-27 19:14:00,
2013-02-27 14:19:00,37.4,34.7,29.65,WNW,292,8.1,8.1,90,0.00,CLR,CLR,0.00,WeatherDisplay:10.37,2013-02-27 19:19:00,
2013-02-27 14:24:00,37.4,34.7,29.65,West,270,10.4,10.4,90,0.00,CLR,CLR,0.00,WeatherDisplay:10.37,2013-02-27 19:24:00,
2013-02-27 14:30:00,37.4,34.7,29.65,WSW,248,10.4,10.4,90,0.00,CLR,CLR,0.00,WeatherDisplay:10.37,2013-02-27 19:30:00,
2013-02-27 14:35:00,37.2,34.6,29.65,SSW,202,9.2,9.2,90,0.00,CLR,CLR,0.00,WeatherDisplay:10.37,2013-02-27 19:35:00,
2013-02-27 14:40:00,37.4,34.7,29.65,WSW,248,10.4,10.4,90,0.00,CLR,CLR,0.00,WeatherDisplay:10.37,2013-02-27 19:40:00,
2013-02-27 14:45:00,37.4,34.7,29.65,WSW,248,9.2,9.2,90,0.00,CLR,CLR,0.00,WeatherDisplay:10.37,2013-02-27 19:45:00,
2013-02-27 14:51:00,37.6,35.2,29.65,WNW,292,8.1,8.1,91,0.00,CLR,CLR,0.00,WeatherDisplay:10.37,2013-02-27 19:51:00,
2013-02-27 14:56:00,37.4,34.5,29.65,West,270,13.8,13.8,89,0.00,CLR,CLR,0.00,WeatherDisplay:10.37,2013-02-27 19:56:00,
2013-02-27 15:01:00,37.2,34.0,29.65,SSW,202,7.4,7.4,88,0.00,CLR,CLR,0.00,WeatherDisplay:10.37,2013-02-27 20:01:00,
2013-02-27 15:06:00,36.9,33.6,29.65,WSW,248,9.2,9.2,88,0.00,CLR,CLR,0.00,WeatherDisplay:10.37,2013-02-27 20:06:00,
2013-02-27 15:12:00,36.7,33.2,29.65,WNW,292,10.4,10.4,87,0.00,CLR,CLR,0.00,WeatherDisplay:10.37,2013-02-27 20:12:00,
2013-02-27 15:17:00,36.7,33.5,29.65,West,270,10.7,10.7,88,0.00,CLR,CLR,0.00,WeatherDisplay:10.37,2013-02-27 20:17:00,
2013-02-27 15:22:00,36.5,33.6,29.65,WSW,248,7.6,7.6,89,0.00,CLR,CLR,0.00,WeatherDisplay:10.37,2013-02-27 20:22:00,
2013-02-27 15:27:00,36.3,33.7,29.65,WNW,292,8.1,8.1,90,0.00,CLR,CLR,0.00,WeatherDisplay:10.37,2013-02-27 20:27:00,
2013-02-27 15:33:00,36.1,33.8,29.65,WSW,248,12.8,12.8,91,0.00,CLR,CLR,0.00,WeatherDisplay:10.37,2013-02-27 20:33:00,
2013-02-27 15:38:00,35.8,33.7,29.65,SSW,202,6.0,6.0,92,0.04,RA,RA,0.04,WeatherDisplay:10.37,2013-02-27 20:38:00,
2013-02-27 15:43:00,35.8,34.0,29.65,WNW,292,9.8,9.8,93,0.04,RA,RA,0.04,WeatherDisplay:10.37,2013-02-27 20:43:00,
2013-02-27 15:49:00,35.6,33.8,29.65,West,270,10.5,10.5,93,0.04,,,0.04,WeatherDisplay:10.37,2013-02-27 20:49:00,
2013-02-27 15:54:00,35.4,33.6,29.65,SSW,202,15.0,15.0,93,0.04,CLR,CLR,0.04,WeatherDisplay:10.37,2013-02-27 20:54:00,
2013-02-27 15:59:00,34.7,32.9,29.65,WNW,292,11.5,12.1,93,0.04,CLR,CLR,0.04,WeatherDisplay:10.37,2013-02-27 20:59:00,
2013-02-27 16:04:00,34.3,33.1,29.65,WSW,248,8.1,8.1,95,0.04,CLR,CLR,0.04,WeatherDisplay:10.37,2013-02-27 21:04:00,
2013-02-27 16:09:00,34.2,33.1,29.65,West,270,10.4,10.4,96,0.04,CLR,CLR,0.04,WeatherDisplay:10.37,2013-02-27 21:09:00,
2013-02-27 16:15:00,34.2,33.4,29.65,WNW,292,13.8,13.8,97,0.04,CLR,CLR,0.04,WeatherDisplay:10.37,2013-02-27 21:15:00,
2013-02-27 16:20:00,34.2,33.4,29.65,WSW,248,8.1,8.1,97,0.04,CLR,CLR,0.04,WeatherDisplay:10.37,2013-02-27 21:20:00,
2013-02-27 16:25:00,34.3,33.6,29.65,WSW,248,10.4,10.4,97,0.04,CLR,CLR,0.04,WeatherDisplay:10.37,2013-02-27 21:25:00,
2013-02-27 16:30:00,34.3,33.3,29.65,WSW,248,9.0,9.0,96,0.04,CLR,CLR,0.04,WeatherDisplay:10.37,2013-02-27 21:30:00,
2013-02-27 16:36:00,34.5,33.0,29.65,WSW,248,10.4,10.4,94,0.04,CLR,CLR,0.04,WeatherDisplay:10.37,2013-02-27 21:36:00,
2013-02-27 16:41:00,34.5,32.7,29.65,WSW,248,13.8,13.8,93,0.00,CLR,CLR,0.04,WeatherDisplay:10.37,2013-02-27 21:41:00,
2013-02-27 16:46:00,34.5,32.4,29.65,WSW,248,12.1,12.1,92,0.00,CLR,CLR,0.04,WeatherDisplay:10.37,2013-02-27 21:46:00,
2013-02-27 16:51:00,34.7,32.3,29.65,WSW,248,8.5,8.5,91,0.00,CLR,CLR,0.04,WeatherDisplay:10.37,2013-02-27 21:51:00,
2013-02-27 16:57:00,34.7,32.3,29.68,WNW,292,10.4,10.4,91,0.00,CLR,CLR,0.04,WeatherDisplay:10.37,2013-02-27 21:57:00,
2013-02-27 17:02:00,34.7,32.3,29.68,WSW,248,10.4,10.4,91,0.00,CLR,CLR,0.04,WeatherDisplay:10.37,2013-02-27 22:02:00,
2013-02-27 17:07:00,34.7,31.8,29.68,WNW,292,11.5,11.5,89,0.00,CLR,CLR,0.04,WeatherDisplay:10.37,2013-02-27 22:07:00,
2013-02-27 17:12:00,34.7,31.8,29.68,SSE,158,10.4,10.4,89,0.00,CLR,CLR,0.04,WeatherDisplay:10.37,2013-02-27 22:12:00,
2013-02-27 17:17:00,34.7,31.5,29.68,WNW,292,10.5,10.5,88,0.00,CLR,CLR,0.04,WeatherDisplay:10.37,2013-02-27 22:17:00,
2013-02-27 17:22:00,34.5,31.3,29.68,WSW,248,9.2,9.2,88,0.00,CLR,CLR,0.04,WeatherDisplay:10.37,2013-02-27 22:22:00,
2013-02-27 17:28:00,34.5,31.6,29.68,WSW,248,9.2,9.2,89,0.00,CLR,CLR,0.04,WeatherDisplay:10.37,2013-02-27 22:28:00,
2013-02-27 17:33:00,34.5,31.6,29.68,WSW,248,6.9,6.9,89,0.00,CLR,CLR,0.04,WeatherDisplay:10.37,2013-02-27 22:33:00,
2013-02-27 17:38:00,34.5,31.6,29.68,NW,315,10.4,10.4,89,0.00,CLR,CLR,0.04,WeatherDisplay:10.37,2013-02-27 22:38:00,
2013-02-27 17:43:00,34.5,31.6,29.68,NNW,338,8.1,8.1,89,0.00,CLR,CLR,0.04,WeatherDisplay:10.37,2013-02-27 22:43:00,
2013-02-27 17:49:00,34.3,31.4,29.68,SSW,202,4.9,4.9,89,0.00,CLR,CLR,0.04,WeatherDisplay:10.37,2013-02-27 22:49:00,
2013-02-27 17:54:00,34.5,31.6,29.68,WSW,248,8.5,8.5,89,0.00,CLR,CLR,0.04,WeatherDisplay:10.37,2013-02-27 22:54:00,
2013-02-27 17:59:00,34.5,31.6,29.68,WSW,248,5.8,6.0,89,0.00,CLR,CLR,0.04,WeatherDisplay:10.37,2013-02-27 22:59:00,
2013-02-27 18:04:00,34.5,31.6,29.68,WNW,292,5.8,5.8,89,0.00,CLR,CLR,0.04,WeatherDisplay:10.37,2013-02-27 23:04:00,
2013-02-27 18:10:00,34.5,31.6,29.68,NNW,338,10.4,10.4,89,0.00,CLR,CLR,0.04,WeatherDisplay:10.37,2013-02-27 23:10:00,
2013-02-27 18:15:00,34.5,31.6,29.68,SSW,202,6.0,6.0,89,0.00,CLR,CLR,0.04,WeatherDisplay:10.37,2013-02-27 23:15:00,
2013-02-27 18:20:00,34.5,31.6,29.68,WSW,248,8.1,8.1,89,0.00,CLR,CLR,0.04,WeatherDisplay:10.37,2013-02-27 23:20:00,
2013-02-27 18:25:00,34.5,31.6,29.68,WSW,248,12.7,12.7,89,0.00,CLR,CLR,0.04,WeatherDisplay:10.37,2013-02-27 23:25:00,
2013-02-27 18:31:00,34.3,31.4,29.68,South,180,5.8,5.8,89,0.00,CLR,CLR,0.04,WeatherDisplay:10.37,2013-02-27 23:31:00,
2013-02-27 18:36:00,34.3,31.4,29.68,SSW,202,8.1,8.1,89,0.00,CLR,CLR,0.04,WeatherDisplay:10.37,2013-02-27 23:36:00,
2013-02-27 18:41:00,34.3,31.4,29.68,WSW,248,11.5,11.5,89,0.00,CLR,CLR,0.04,WeatherDisplay:10.37,2013-02-27 23:41:00,
2013-02-27 18:46:00,34.2,31.5,29.68,SSE,158,8.1,8.1,90,0.00,CLR,CLR,0.04,WeatherDisplay:10.37,2013-02-27 23:46:00,
2013-02-27 18:52:00,34.2,31.3,29.68,WNW,292,8.1,8.1,89,0.00,CLR,CLR,0.04,WeatherDisplay:10.37,2013-02-27 23:52:00,
2013-02-27 18:57:00,34.2,31.0,29.68,SSE,158,6.9,6.9,88,0.00,CLR,CLR,0.04,WeatherDisplay:10.37,2013-02-27 23:57:00,
2013-02-27 19:02:00,34.2,30.1,29.68,SSE,158,13.8,13.8,85,0.00,CLR,CLR,0.04,WeatherDisplay:10.37,2013-02-28 00:02:00,
2013-02-27 19:07:00,34.0,29.9,29.68,West,270,12.7,12.7,85,0.00,CLR,CLR,0.04,WeatherDisplay:10.37,2013-02-28 00:07:00,
2013-02-27 19:12:00,34.0,30.2,29.68,WSW,248,8.1,8.1,86,0.00,CLR,CLR,0.04,WeatherDisplay:10.37,2013-02-28 00:12:00,
2013-02-27 19:18:00,33.8,30.3,29.68,WNW,292,11.5,11.5,87,0.00,CLR,CLR,0.04,WeatherDisplay:10.37,2013-02-28 00:18:00,
2013-02-27 19:23:00,33.8,30.6,29.68,SSW,202,6.9,6.9,88,0.00,CLR,CLR,0.04,WeatherDisplay:10.37,2013-02-28 00:23:00,
2013-02-27 19:28:00,33.6,30.4,29.68,SSW,202,10.5,10.5,88,0.00,CLR,CLR,0.04,WeatherDisplay:10.37,2013-02-28 00:28:00,
2013-02-27 19:33:00,33.6,30.4,29.68,WSW,248,9.2,9.2,88,0.00,CLR,CLR,0.04,WeatherDisplay:10.37,2013-02-28 00:33:00,
2013-02-27 19:38:00,33.6,30.7,29.68,NNW,338,6.0,6.0,89,0.00,CLR,CLR,0.04,WeatherDisplay:10.37,2013-02-28 00:38:00,
2013-02-27 19:44:00,33.4,30.3,29.68,WSW,248,14.7,14.7,88,0.00,CLR,CLR,0.04,WeatherDisplay:10.37,2013-02-28 00:44:00,
2013-02-27 19:49:00,33.4,30.0,29.68,WSW,248,10.4,10.4,87,0.00,CLR,CLR,0.04,WeatherDisplay:10.37,2013-02-28 00:49:00,
2013-02-27 19:54:00,33.3,29.8,29.68,SSW,202,13.8,13.8,87,0.00,CLR,CLR,0.04,WeatherDisplay:10.37,2013-02-28 00:54:00,
2013-02-27 19:59:00,33.3,29.8,29.71,WSW,248,13.2,13.2,87,0.04,RA,RA,0.08,WeatherDisplay:10.37,2013-02-28 00:59:00,
2013-02-27 20:05:00,33.3,29.5,29.71,WNW,292,13.8,13.8,86,0.04,,,0.08,WeatherDisplay:10.37,2013-02-28 01:05:00,
2013-02-27 20:10:00,33.3,29.8,29.71,WSW,248,8.1,8.1,87,0.04,CLR,CLR,0.08,WeatherDisplay:10.37,2013-02-28 01:10:00,
2013-02-27 20:15:00,33.1,29.6,29.71,WSW,248,13.8,13.8,87,0.04,CLR,CLR,0.08,WeatherDisplay:10.37,2013-02-28 01:15:00,
2013-02-27 20:20:00,33.1,29.6,29.71,SSW,202,10.4,10.4,87,0.04,CLR,CLR,0.08,WeatherDisplay:10.37,2013-02-28 01:20:00,
2013-02-27 20:26:00,33.1,29.3,29.71,WNW,292,15.0,15.0,86,0.04,CLR,CLR,0.08,WeatherDisplay:10.37,2013-02-28 01:26:00,
2013-02-27 20:31:00,33.1,29.6,29.71,WNW,292,12.7,12.7,87,0.04,CLR,CLR,0.08,WeatherDisplay:10.37,2013-02-28 01:31:00,
2013-02-27 20:36:00,33.1,29.9,29.71,NNW,338,8.1,8.1,88,0.04,CLR,CLR,0.08,WeatherDisplay:10.37,2013-02-28 01:36:00,
2013-02-27 20:41:00,33.1,29.9,29.68,SSW,202,10.4,10.4,88,0.04,CLR,CLR,0.08,WeatherDisplay:10.37,2013-02-28 01:41:00,
2013-02-27 20:47:00,33.1,30.2,29.68,SSE,158,9.2,9.2,89,0.04,CLR,CLR,0.08,WeatherDisplay:10.37,2013-02-28 01:47:00,
2013-02-27 20:52:00,33.1,30.5,29.68,WNW,292,6.9,6.9,90,0.04,CLR,CLR,0.08,WeatherDisplay:10.37,2013-02-28 01:52:00,
2013-02-27 20:57:00,32.9,30.6,29.68,NW,315,10.4,10.4,91,0.00,CLR,CLR,0.08,WeatherDisplay:10.37,2013-02-28 01:57:00,
2013-02-27 21:02:00,32.9,30.8,29.68,SSE,158,9.2,9.2,92,0.00,CLR,CLR,0.08,WeatherDisplay:10.37,2013-02-28 02:02:00,
2013-02-27 21:08:00,32.9,30.8,29.68,SSW,202,8.1,8.1,92,0.00,CLR,CLR,0.08,WeatherDisplay:10.37,2013-02-28 02:08:00,
2013-02-27 21:13:00,32.9,30.8,29.68,WSW,248,5.8,6.0,92,0.00,CLR,CLR,0.08,WeatherDisplay:10.37,2013-02-28 02:13:00,
2013-02-27 21:18:00,32.7,30.9,29.68,WNW,292,9.2,9.2,93,0.00,CLR,CLR,0.08,WeatherDisplay:10.37,2013-02-28 02:18:00,
2013-02-27 21:23:00,32.9,30.8,29.68,West,270,12.7,12.7,92,0.00,CLR,CLR,0.08,WeatherDisplay:10.37,2013-02-28 02:23:00,
2013-02-27 21:28:00,32.7,30.9,29.68,NNW,338,5.8,5.8,93,0.00,CLR,CLR,0.08,WeatherDisplay:10.37,2013-02-28 02:28:00,
2013-02-27 21:34:00,32.7,31.2,29.68,SSE,158,4.6,4.6,94,0.00,CLR,CLR,0.08,WeatherDisplay:10.37,2013-02-28 02:34:00,
2013-02-27 21:39:00,32.7,31.2,29.68,WNW,292,5.9,5.9,94,0.00,CLR,CLR,0.08,WeatherDisplay:10.37,2013-02-28 02:39:00,
2013-02-27 21:44:00,32.7,31.4,29.71,SSW,202,9.2,9.2,95,0.00,CLR,CLR,0.08,WeatherDisplay:10.37,2013-02-28 02:44:00,
2013-02-27 21:49:00,32.7,31.4,29.71,ESE,112,12.7,12.7,95,0.00,CLR,CLR,0.08,WeatherDisplay:10.37,2013-02-28 02:49:00,
2013-02-27 21:55:00,32.7,31.4,29.71,SSE,158,9.4,9.4,95,0.00,CLR,CLR,0.08,WeatherDisplay:10.37,2013-02-28 02:55:00,
2013-02-27 22:00:00,32.7,31.7,29.68,West,270,8.1,8.1,96,0.00,CLR,CLR,0.08,WeatherDisplay:10.37,2013-02-28 03:00:00,
2013-02-27 22:05:00,32.7,31.4,29.68,West,270,7.4,7.4,95,0.00,CLR,CLR,0.08,WeatherDisplay:10.37,2013-02-28 03:05:00,
2013-02-27 22:10:00,32.7,31.4,29.68,South,180,6.2,6.2,95,0.00,CLR,CLR,0.08,WeatherDisplay:10.37,2013-02-28 03:10:00,
2013-02-27 22:16:00,32.7,31.4,29.68,WSW,248,13.8,13.8,95,0.00,CLR,CLR,0.08,WeatherDisplay:10.37,2013-02-28 03:16:00,
2013-02-27 22:21:00,32.7,31.7,29.68,SSW,202,9.2,9.2,96,0.00,CLR,CLR,0.08,WeatherDisplay:10.37,2013-02-28 03:21:00,
2013-02-27 22:26:00,32.7,31.7,29.68,SSW,202,5.9,5.9,96,0.00,CLR,CLR,0.08,WeatherDisplay:10.37,2013-02-28 03:26:00,
2013-02-27 22:31:00,32.7,31.7,29.68,SSW,202,11.5,11.5,96,0.00,CLR,CLR,0.08,WeatherDisplay:10.37,2013-02-28 03:31:00,
2013-02-27 22:37:00,32.7,31.7,29.68,WSW,248,8.1,8.1,96,0.00,CLR,CLR,0.08,WeatherDisplay:10.37,2013-02-28 03:37:00,
2013-02-27 22:42:00,32.7,31.4,29.68,West,270,10.4,10.4,95,0.00,CLR,CLR,0.08,WeatherDisplay:10.37,2013-02-28 03:42:00,
2013-02-27 22:47:00,32.7,31.4,29.68,WSW,248,8.1,8.1,95,0.00,CLR,CLR,0.08,WeatherDisplay:10.37,2013-02-28 03:47:00,
2013-02-27 22:53:00,32.7,31.4,29.68,WSW,248,8.1,8.1,95,0.00,CLR,CLR,0.08,WeatherDisplay:10.37,2013-02-28 03:53:00,
2013-02-27 23:12:00,32.7,31.4,29.68,SSW,202,8.1,8.1,95,0.00,CLR,,0.00,WeatherDisplay:10.37,2013-02-28 04:12:00,
2013-02-27 23:17:00,32.7,31.4,29.68,WSW,248,9.8,9.8,95,0.00,RA,,0.00,WeatherDisplay:10.37,2013-02-28 04:17:00,
2013-02-27 23:22:00,32.7,31.4,29.68,WSW,248,9.8,9.8,95,0.00,RA,,0.00,WeatherDisplay:10.37,2013-02-28 04:22:00,
2013-02-27 23:47:00,30.7,9.8,29.85,NW,315,3.5,3.5,41,0.00,CLR,,0.00,WeatherDisplay:10.37,2013-02-28 04:47:00,
2013-02-27 23:52:00,32.5,31.5,29.68,SSW,202,7.8,7.8,96,0.00,CLR,,0.00,WeatherDisplay:10.37,2013-02-28 04:52:00,
2013-02-27 23:57:00,32.5,31.5,29.68,NNW,338,5.8,5.8,96,0.00,CLR,,0.00,WeatherDisplay:10.37,2013-02-28 04:57:00,